sensor_id;sensor_type;location;lat;lon;timestamp;P1;durP1;ratioP1;P2;durP2;ratioP2
66020;SDS011;52789;59.980;30.346;2022-08-01T00:02:20;11.53;;;7.97;;
66020;SDS011;52789;59.980;30.346;2022-08-01T00:04:46;12.77;;;6.40;;
66020;SDS011;52789;59.980;30.346;2022-08-01T00:07:11;12.50;;;7.17;;
66020;SDS011;52789;59.980;30.346;2022-08-01T00:09:37;13.37;;;7.47;;
66020;SDS011;52789;59.980;30.346;2022-08-01T00:12:03;11.80;;;7.60;;
66020;SDS011;52789;59.980;30.346;2022-08-01T00:14:30;15.03;;;6.93;;
66020;SDS011;52789;59.980;30.346;2022-08-01T00:16:55;12.43;;;6.90;;
66020;SDS011;52789;59.980;30.346;2022-08-01T00:19:21;15.30;;;6.97;;
66020;SDS011;52789;59.980;30.346;2022-08-01T00:21:46;15.30;;;7.43;;
66020;SDS011;52789;59.980;30.346;2022-08-01T00:24:12;12.33;;;7.27;;
66020;SDS011;52789;59.980;30.346;2022-08-01T00:26:37;12.30;;;6.90;;
66020;SDS011;52789;59.980;30.346;2022-08-01T00:29:03;9.30;;;7.20;;
66020;SDS011;52789;59.980;30.346;2022-08-01T00:31:28;13.43;;;7.30;;
66020;SDS011;52789;59.980;30.346;2022-08-01T00:33:54;14.20;;;7.33;;
66020;SDS011;52789;59.980;30.346;2022-08-01T00:36:20;12.63;;;6.77;;
66020;SDS011;52789;59.980;30.346;2022-08-01T00:38:46;12.87;;;7.50;;
66020;SDS011;52789;59.980;30.346;2022-08-01T00:41:11;15.87;;;8.10;;
66020;SDS011;52789;59.980;30.346;2022-08-01T00:43:37;18.20;;;7.23;;
66020;SDS011;52789;59.980;30.346;2022-08-01T00:46:02;11.00;;;8.73;;
66020;SDS011;52789;59.980;30.346;2022-08-01T00:48:28;14.57;;;7.47;;
66020;SDS011;52789;59.980;30.346;2022-08-01T00:50:54;15.33;;;7.57;;
66020;SDS011;52789;59.980;30.346;2022-08-01T00:53:19;12.33;;;7.60;;
66020;SDS011;52789;59.980;30.346;2022-08-01T00:55:46;20.40;;;8.83;;
66020;SDS011;52789;59.980;30.346;2022-08-01T00:58:12;22.00;;;8.83;;
66020;SDS011;52789;59.980;30.346;2022-08-01T01:00:38;18.40;;;8.77;;
66020;SDS011;52789;59.980;30.346;2022-08-01T01:03:03;15.77;;;7.60;;
66020;SDS011;52789;59.980;30.346;2022-08-01T01:05:30;15.73;;;8.33;;
66020;SDS011;52789;59.980;30.346;2022-08-01T01:08:15;17.47;;;8.00;;
66020;SDS011;52789;59.980;30.346;2022-08-01T01:10:54;16.77;;;8.20;;
66020;SDS011;52789;59.980;30.346;2022-08-01T01:15:59;17.33;;;8.87;;
66020;SDS011;52789;59.980;30.346;2022-08-01T01:18:34;17.53;;;9.07;;
66020;SDS011;52789;59.980;30.346;2022-08-01T01:27:06;14.67;;;8.87;;
66020;SDS011;52789;59.980;30.346;2022-08-01T01:31:57;15.03;;;8.30;;
66020;SDS011;52789;59.980;30.346;2022-08-01T01:34:28;15.20;;;10.23;;
66020;SDS011;52789;59.980;30.346;2022-08-01T01:36:57;18.17;;;9.47;;
66020;SDS011;52789;59.980;30.346;2022-08-01T01:39:25;19.13;;;8.35;;
66020;SDS011;52789;59.980;30.346;2022-08-01T01:44:19;14.17;;;9.07;;
66020;SDS011;52789;59.980;30.346;2022-08-01T01:46:45;18.80;;;9.17;;
66020;SDS011;52789;59.980;30.346;2022-08-01T01:49:13;22.38;;;9.57;;
66020;SDS011;52789;59.980;30.346;2022-08-01T01:51:40;15.70;;;8.63;;
66020;SDS011;52789;59.980;30.346;2022-08-01T01:54:08;19.70;;;8.32;;
66020;SDS011;52789;59.980;30.346;2022-08-01T01:56:35;16.90;;;9.00;;
66020;SDS011;52789;59.980;30.346;2022-08-01T01:59:15;17.25;;;8.55;;
66020;SDS011;52789;59.980;30.346;2022-08-01T02:01:49;13.93;;;9.90;;
66020;SDS011;52789;59.980;30.346;2022-08-01T02:04:18;16.85;;;9.85;;
66020;SDS011;52789;59.980;30.346;2022-08-01T02:06:46;19.02;;;8.98;;
66020;SDS011;52789;59.980;30.346;2022-08-01T02:09:14;16.50;;;8.93;;
66020;SDS011;52789;59.980;30.346;2022-08-01T02:11:43;13.17;;;9.20;;
66020;SDS011;52789;59.980;30.346;2022-08-01T02:14:10;14.47;;;8.83;;
66020;SDS011;52789;59.980;30.346;2022-08-01T02:16:39;14.80;;;8.40;;
66020;SDS011;52789;59.980;30.346;2022-08-01T02:19:06;10.90;;;7.63;;
66020;SDS011;52789;59.980;30.346;2022-08-01T02:21:35;16.30;;;9.30;;
66020;SDS011;52789;59.980;30.346;2022-08-01T02:24:12;22.03;;;8.40;;
66020;SDS011;52789;59.980;30.346;2022-08-01T02:26:42;20.52;;;8.27;;
66020;SDS011;52789;59.980;30.346;2022-08-01T02:29:13;17.17;;;9.00;;
66020;SDS011;52789;59.980;30.346;2022-08-01T02:31:43;17.47;;;8.37;;
66020;SDS011;52789;59.980;30.346;2022-08-01T02:34:13;18.80;;;8.48;;
66020;SDS011;52789;59.980;30.346;2022-08-01T02:36:42;13.07;;;7.43;;
66020;SDS011;52789;59.980;30.346;2022-08-01T02:39:11;13.67;;;7.97;;
66020;SDS011;52789;59.980;30.346;2022-08-01T02:41:40;17.20;;;8.17;;
66020;SDS011;52789;59.980;30.346;2022-08-01T02:44:10;18.00;;;8.37;;
66020;SDS011;52789;59.980;30.346;2022-08-01T02:46:45;17.83;;;8.93;;
66020;SDS011;52789;59.980;30.346;2022-08-01T02:49:16;13.00;;;7.33;;
66020;SDS011;52789;59.980;30.346;2022-08-01T02:51:44;23.80;;;7.45;;
66020;SDS011;52789;59.980;30.346;2022-08-01T02:54:12;14.75;;;8.70;;
66020;SDS011;52789;59.980;30.346;2022-08-01T02:56:42;12.20;;;8.70;;
66020;SDS011;52789;59.980;30.346;2022-08-01T02:59:12;19.13;;;9.00;;
66020;SDS011;52789;59.980;30.346;2022-08-01T03:01:41;10.90;;;8.13;;
66020;SDS011;52789;59.980;30.346;2022-08-01T03:04:10;17.07;;;8.97;;
66020;SDS011;52789;59.980;30.346;2022-08-01T03:06:37;15.47;;;8.10;;
66020;SDS011;52789;59.980;30.346;2022-08-01T03:09:04;8.87;;;7.70;;
66020;SDS011;52789;59.980;30.346;2022-08-01T03:11:31;12.90;;;7.50;;
66020;SDS011;52789;59.980;30.346;2022-08-01T03:14:02;9.70;;;7.43;;
66020;SDS011;52789;59.980;30.346;2022-08-01T03:16:30;12.00;;;7.80;;
66020;SDS011;52789;59.980;30.346;2022-08-01T03:18:58;10.90;;;8.18;;
66020;SDS011;52789;59.980;30.346;2022-08-01T03:21:26;16.33;;;7.80;;
66020;SDS011;52789;59.980;30.346;2022-08-01T03:23:54;12.93;;;8.50;;
66020;SDS011;52789;59.980;30.346;2022-08-01T03:26:24;13.90;;;7.80;;
66020;SDS011;52789;59.980;30.346;2022-08-01T03:29:01;16.03;;;7.80;;
66020;SDS011;52789;59.980;30.346;2022-08-01T03:31:31;15.17;;;8.47;;
66020;SDS011;52789;59.980;30.346;2022-08-01T03:34:03;13.10;;;8.33;;
66020;SDS011;52789;59.980;30.346;2022-08-01T03:36:30;17.30;;;8.50;;
66020;SDS011;52789;59.980;30.346;2022-08-01T03:39:00;14.38;;;7.70;;
66020;SDS011;52789;59.980;30.346;2022-08-01T03:41:29;18.83;;;8.88;;
66020;SDS011;52789;59.980;30.346;2022-08-01T03:44:03;16.65;;;8.15;;
66020;SDS011;52789;59.980;30.346;2022-08-01T03:46:33;12.77;;;8.30;;
66020;SDS011;52789;59.980;30.346;2022-08-01T03:49:06;12.47;;;8.23;;
66020;SDS011;52789;59.980;30.346;2022-08-01T03:51:36;20.07;;;8.10;;
66020;SDS011;52789;59.980;30.346;2022-08-01T03:54:04;13.47;;;8.40;;
66020;SDS011;52789;59.980;30.346;2022-08-01T03:56:31;10.82;;;7.53;;
66020;SDS011;52789;59.980;30.346;2022-08-01T03:58:59;15.80;;;7.88;;
66020;SDS011;52789;59.980;30.346;2022-08-01T04:01:28;13.20;;;8.63;;
66020;SDS011;52789;59.980;30.346;2022-08-01T04:03:56;16.35;;;8.43;;
66020;SDS011;52789;59.980;30.346;2022-08-01T04:06:24;19.25;;;8.45;;
66020;SDS011;52789;59.980;30.346;2022-08-01T04:08:49;16.98;;;8.88;;
66020;SDS011;52789;59.980;30.346;2022-08-01T04:11:22;12.25;;;8.13;;
66020;SDS011;52789;59.980;30.346;2022-08-01T04:13:51;18.13;;;9.30;;
66020;SDS011;52789;59.980;30.346;2022-08-01T04:16:18;18.73;;;9.95;;
66020;SDS011;52789;59.980;30.346;2022-08-01T04:18:44;12.85;;;8.50;;
66020;SDS011;52789;59.980;30.346;2022-08-01T04:21:09;15.23;;;10.52;;
66020;SDS011;52789;59.980;30.346;2022-08-01T04:23:35;13.93;;;7.57;;
66020;SDS011;52789;59.980;30.346;2022-08-01T04:26:04;18.50;;;8.25;;
66020;SDS011;52789;59.980;30.346;2022-08-01T04:28:32;13.35;;;8.07;;
66020;SDS011;52789;59.980;30.346;2022-08-01T04:30:59;18.02;;;9.70;;
66020;SDS011;52789;59.980;30.346;2022-08-01T04:33:26;11.50;;;7.13;;
66020;SDS011;52789;59.980;30.346;2022-08-01T04:35:55;10.40;;;7.18;;
66020;SDS011;52789;59.980;30.346;2022-08-01T04:38:24;10.90;;;7.25;;
66020;SDS011;52789;59.980;30.346;2022-08-01T04:40:52;12.25;;;7.85;;
66020;SDS011;52789;59.980;30.346;2022-08-01T04:43:20;8.05;;;6.55;;
66020;SDS011;52789;59.980;30.346;2022-08-01T04:45:46;12.38;;;6.82;;
66020;SDS011;52789;59.980;30.346;2022-08-01T04:48:13;14.35;;;6.50;;
66020;SDS011;52789;59.980;30.346;2022-08-01T04:50:41;15.95;;;6.13;;
66020;SDS011;52789;59.980;30.346;2022-08-01T04:53:14;11.25;;;6.70;;
66020;SDS011;52789;59.980;30.346;2022-08-01T04:55:42;11.85;;;6.15;;
66020;SDS011;52789;59.980;30.346;2022-08-01T04:58:09;19.55;;;6.03;;
66020;SDS011;52789;59.980;30.346;2022-08-01T05:00:36;8.88;;;5.38;;
66020;SDS011;52789;59.980;30.346;2022-08-01T05:03:02;12.02;;;4.57;;
66020;SDS011;52789;59.980;30.346;2022-08-01T05:05:27;8.30;;;5.18;;
66020;SDS011;52789;59.980;30.346;2022-08-01T05:07:53;9.25;;;5.38;;
66020;SDS011;52789;59.980;30.346;2022-08-01T05:10:19;13.25;;;5.85;;
66020;SDS011;52789;59.980;30.346;2022-08-01T05:12:44;10.07;;;4.35;;
66020;SDS011;52789;59.980;30.346;2022-08-01T05:15:11;11.15;;;4.82;;
66020;SDS011;52789;59.980;30.346;2022-08-01T05:17:37;7.15;;;4.80;;
66020;SDS011;52789;59.980;30.346;2022-08-01T05:20:02;7.88;;;3.78;;
66020;SDS011;52789;59.980;30.346;2022-08-01T05:22:28;7.78;;;4.15;;
66020;SDS011;52789;59.980;30.346;2022-08-01T05:24:54;7.90;;;3.63;;
66020;SDS011;52789;59.980;30.346;2022-08-01T05:27:19;8.07;;;4.18;;
66020;SDS011;52789;59.980;30.346;2022-08-01T05:29:46;8.93;;;3.83;;
66020;SDS011;52789;59.980;30.346;2022-08-01T05:32:11;9.02;;;4.22;;
66020;SDS011;52789;59.980;30.346;2022-08-01T05:34:37;9.35;;;4.15;;
66020;SDS011;52789;59.980;30.346;2022-08-01T05:37:03;7.70;;;3.60;;
66020;SDS011;52789;59.980;30.346;2022-08-01T05:39:29;8.88;;;3.95;;
66020;SDS011;52789;59.980;30.346;2022-08-01T05:41:55;7.85;;;3.42;;
66020;SDS011;52789;59.980;30.346;2022-08-01T05:44:20;14.40;;;5.20;;
66020;SDS011;52789;59.980;30.346;2022-08-01T05:46:46;8.98;;;3.92;;
66020;SDS011;52789;59.980;30.346;2022-08-01T05:49:11;10.30;;;4.47;;
66020;SDS011;52789;59.980;30.346;2022-08-01T05:51:37;9.55;;;4.90;;
66020;SDS011;52789;59.980;30.346;2022-08-01T05:54:02;7.93;;;4.55;;
66020;SDS011;52789;59.980;30.346;2022-08-01T05:56:28;15.25;;;4.45;;
66020;SDS011;52789;59.980;30.346;2022-08-01T05:58:57;9.57;;;3.58;;
66020;SDS011;52789;59.980;30.346;2022-08-01T06:01:26;11.48;;;4.75;;
66020;SDS011;52789;59.980;30.346;2022-08-01T06:06:19;8.30;;;4.13;;
66020;SDS011;52789;59.980;30.346;2022-08-01T06:08:46;6.43;;;3.55;;
66020;SDS011;52789;59.980;30.346;2022-08-01T06:11:12;10.10;;;3.97;;
66020;SDS011;52789;59.980;30.346;2022-08-01T06:13:37;9.45;;;3.40;;
66020;SDS011;52789;59.980;30.346;2022-08-01T06:16:03;7.38;;;3.70;;
66020;SDS011;52789;59.980;30.346;2022-08-01T06:18:29;9.25;;;3.83;;
66020;SDS011;52789;59.980;30.346;2022-08-01T06:20:54;8.70;;;3.25;;
66020;SDS011;52789;59.980;30.346;2022-08-01T06:23:20;8.77;;;3.63;;
66020;SDS011;52789;59.980;30.346;2022-08-01T06:25:47;8.20;;;2.92;;
66020;SDS011;52789;59.980;30.346;2022-08-01T06:28:13;7.47;;;3.67;;
66020;SDS011;52789;59.980;30.346;2022-08-01T06:30:38;7.13;;;3.03;;
66020;SDS011;52789;59.980;30.346;2022-08-01T06:33:04;7.30;;;2.92;;
66020;SDS011;52789;59.980;30.346;2022-08-01T06:35:30;5.95;;;2.80;;
66020;SDS011;52789;59.980;30.346;2022-08-01T06:37:56;6.47;;;3.33;;
66020;SDS011;52789;59.980;30.346;2022-08-01T06:40:22;5.80;;;3.03;;
66020;SDS011;52789;59.980;30.346;2022-08-01T06:42:48;5.40;;;2.83;;
66020;SDS011;52789;59.980;30.346;2022-08-01T06:45:15;10.50;;;3.05;;
66020;SDS011;52789;59.980;30.346;2022-08-01T06:47:43;10.40;;;4.43;;
66020;SDS011;52789;59.980;30.346;2022-08-01T06:50:09;9.27;;;5.07;;
66020;SDS011;52789;59.980;30.346;2022-08-01T06:52:36;8.68;;;3.20;;
66020;SDS011;52789;59.980;30.346;2022-08-01T06:55:01;9.25;;;2.65;;
66020;SDS011;52789;59.980;30.346;2022-08-01T06:57:28;7.38;;;2.65;;
66020;SDS011;52789;59.980;30.346;2022-08-01T06:59:54;15.20;;;3.28;;
66020;SDS011;52789;59.980;30.346;2022-08-01T07:02:20;6.10;;;3.58;;
66020;SDS011;52789;59.980;30.346;2022-08-01T07:04:46;9.40;;;2.72;;
66020;SDS011;52789;59.980;30.346;2022-08-01T07:07:12;5.40;;;2.17;;
66020;SDS011;52789;59.980;30.346;2022-08-01T07:09:37;6.97;;;3.05;;
66020;SDS011;52789;59.980;30.346;2022-08-01T07:14:31;8.18;;;3.05;;
66020;SDS011;52789;59.980;30.346;2022-08-01T07:16:56;7.95;;;3.17;;
66020;SDS011;52789;59.980;30.346;2022-08-01T07:19:22;10.30;;;3.10;;
66020;SDS011;52789;59.980;30.346;2022-08-01T07:21:47;7.75;;;2.65;;
66020;SDS011;52789;59.980;30.346;2022-08-01T07:24:13;9.27;;;2.65;;
66020;SDS011;52789;59.980;30.346;2022-08-01T07:26:40;6.10;;;2.78;;
66020;SDS011;52789;59.980;30.346;2022-08-01T07:29:10;4.72;;;2.60;;
66020;SDS011;52789;59.980;30.346;2022-08-01T07:31:35;7.72;;;2.80;;
66020;SDS011;52789;59.980;30.346;2022-08-01T07:34:01;9.57;;;3.63;;
66020;SDS011;52789;59.980;30.346;2022-08-01T07:36:26;8.65;;;3.25;;
66020;SDS011;52789;59.980;30.346;2022-08-01T07:38:52;10.63;;;2.55;;
66020;SDS011;52789;59.980;30.346;2022-08-01T07:41:17;7.45;;;3.00;;
66020;SDS011;52789;59.980;30.346;2022-08-01T07:43:43;11.38;;;3.33;;
66020;SDS011;52789;59.980;30.346;2022-08-01T07:46:09;13.60;;;2.90;;
66020;SDS011;52789;59.980;30.346;2022-08-01T07:48:34;7.30;;;2.20;;
66020;SDS011;52789;59.980;30.346;2022-08-01T07:51:00;5.68;;;2.45;;
66020;SDS011;52789;59.980;30.346;2022-08-01T07:53:25;9.02;;;2.42;;
66020;SDS011;52789;59.980;30.346;2022-08-01T07:55:51;8.20;;;2.33;;
66020;SDS011;52789;59.980;30.346;2022-08-01T07:58:17;4.13;;;2.45;;
66020;SDS011;52789;59.980;30.346;2022-08-01T08:00:43;6.90;;;2.25;;
66020;SDS011;52789;59.980;30.346;2022-08-01T08:03:09;6.78;;;2.28;;
66020;SDS011;52789;59.980;30.346;2022-08-01T08:05:35;6.45;;;2.38;;
66020;SDS011;52789;59.980;30.346;2022-08-01T08:08:07;4.32;;;2.13;;
66020;SDS011;52789;59.980;30.346;2022-08-01T08:10:33;6.85;;;2.20;;
66020;SDS011;52789;59.980;30.346;2022-08-01T08:12:59;4.82;;;1.75;;
66020;SDS011;52789;59.980;30.346;2022-08-01T08:15:26;6.97;;;1.63;;
66020;SDS011;52789;59.980;30.346;2022-08-01T08:17:52;9.30;;;2.15;;
66020;SDS011;52789;59.980;30.346;2022-08-01T08:20:17;3.70;;;1.90;;
66020;SDS011;52789;59.980;30.346;2022-08-01T08:22:43;6.30;;;2.40;;
66020;SDS011;52789;59.980;30.346;2022-08-01T08:25:08;5.13;;;2.38;;
66020;SDS011;52789;59.980;30.346;2022-08-01T08:27:35;8.40;;;1.98;;
66020;SDS011;52789;59.980;30.346;2022-08-01T08:30:01;4.93;;;1.60;;
66020;SDS011;52789;59.980;30.346;2022-08-01T08:32:30;6.47;;;2.28;;
66020;SDS011;52789;59.980;30.346;2022-08-01T08:34:55;4.32;;;1.85;;
66020;SDS011;52789;59.980;30.346;2022-08-01T08:37:22;9.32;;;3.78;;
66020;SDS011;52789;59.980;30.346;2022-08-01T08:39:47;6.70;;;2.55;;
66020;SDS011;52789;59.980;30.346;2022-08-01T08:42:13;12.73;;;3.08;;
66020;SDS011;52789;59.980;30.346;2022-08-01T08:44:41;16.83;;;3.75;;
66020;SDS011;52789;59.980;30.346;2022-08-01T08:47:08;18.95;;;3.97;;
66020;SDS011;52789;59.980;30.346;2022-08-01T08:49:36;7.10;;;3.38;;
66020;SDS011;52789;59.980;30.346;2022-08-01T08:52:03;11.85;;;4.05;;
66020;SDS011;52789;59.980;30.346;2022-08-01T08:54:29;9.10;;;4.20;;
66020;SDS011;52789;59.980;30.346;2022-08-01T08:56:56;11.57;;;4.55;;
66020;SDS011;52789;59.980;30.346;2022-08-01T08:59:23;7.10;;;4.13;;
66020;SDS011;52789;59.980;30.346;2022-08-01T09:01:50;9.88;;;4.22;;
66020;SDS011;52789;59.980;30.346;2022-08-01T09:04:18;8.10;;;5.55;;
66020;SDS011;52789;59.980;30.346;2022-08-01T09:06:47;5.47;;;4.15;;
66020;SDS011;52789;59.980;30.346;2022-08-01T09:09:13;8.55;;;3.85;;
66020;SDS011;52789;59.980;30.346;2022-08-01T09:11:38;8.82;;;3.80;;
66020;SDS011;52789;59.980;30.346;2022-08-01T09:16:41;5.05;;;2.72;;
66020;SDS011;52789;59.980;30.346;2022-08-01T09:19:17;5.43;;;2.50;;
66020;SDS011;52789;59.980;30.346;2022-08-01T09:22:00;8.50;;;2.97;;
66020;SDS011;52789;59.980;30.346;2022-08-01T09:24:30;5.32;;;2.40;;
66020;SDS011;52789;59.980;30.346;2022-08-01T09:26:56;9.07;;;2.50;;
66020;SDS011;52789;59.980;30.346;2022-08-01T09:29:24;6.25;;;3.53;;
66020;SDS011;52789;59.980;30.346;2022-08-01T09:31:54;3.72;;;1.40;;
66020;SDS011;52789;59.980;30.346;2022-08-01T09:34:30;7.10;;;1.80;;
66020;SDS011;52789;59.980;30.346;2022-08-01T09:36:59;18.73;;;2.83;;
66020;SDS011;52789;59.980;30.346;2022-08-01T09:39:30;4.05;;;2.03;;
66020;SDS011;52789;59.980;30.346;2022-08-01T09:42:18;5.18;;;1.73;;
66020;SDS011;52789;59.980;30.346;2022-08-01T09:44:45;6.97;;;2.33;;
66020;SDS011;52789;59.980;30.346;2022-08-01T09:47:11;4.70;;;1.58;;
66020;SDS011;52789;59.980;30.346;2022-08-01T09:49:38;6.47;;;1.73;;
66020;SDS011;52789;59.980;30.346;2022-08-01T09:52:18;6.15;;;1.67;;
66020;SDS011;52789;59.980;30.346;2022-08-01T09:54:52;6.15;;;2.00;;
66020;SDS011;52789;59.980;30.346;2022-08-01T09:57:18;3.00;;;1.88;;
66020;SDS011;52789;59.980;30.346;2022-08-01T09:59:45;5.18;;;2.13;;
66020;SDS011;52789;59.980;30.346;2022-08-01T10:02:13;6.47;;;2.53;;
66020;SDS011;52789;59.980;30.346;2022-08-01T10:04:51;5.43;;;2.30;;
66020;SDS011;52789;59.980;30.346;2022-08-01T10:07:18;7.57;;;2.05;;
66020;SDS011;52789;59.980;30.346;2022-08-01T10:09:44;4.38;;;2.00;;
66020;SDS011;52789;59.980;30.346;2022-08-01T10:12:12;7.00;;;2.15;;
66020;SDS011;52789;59.980;30.346;2022-08-01T10:14:39;5.03;;;2.03;;
66020;SDS011;52789;59.980;30.346;2022-08-01T10:17:09;8.00;;;2.22;;
66020;SDS011;52789;59.980;30.346;2022-08-01T10:19:38;2.80;;;1.80;;
66020;SDS011;52789;59.980;30.346;2022-08-01T10:22:07;3.42;;;1.55;;
66020;SDS011;52789;59.980;30.346;2022-08-01T10:24:36;2.63;;;1.73;;
66020;SDS011;52789;59.980;30.346;2022-08-01T10:27:08;5.78;;;1.90;;
66020;SDS011;52789;59.980;30.346;2022-08-01T10:29:56;3.03;;;1.60;;
66020;SDS011;52789;59.980;30.346;2022-08-01T10:32:22;3.00;;;1.73;;
66020;SDS011;52789;59.980;30.346;2022-08-01T10:34:49;2.67;;;1.27;;
66020;SDS011;52789;59.980;30.346;2022-08-01T10:37:15;6.07;;;1.58;;
66020;SDS011;52789;59.980;30.346;2022-08-01T10:39:43;1.90;;;1.50;;
66020;SDS011;52789;59.980;30.346;2022-08-01T10:42:09;4.05;;;1.73;;
66020;SDS011;52789;59.980;30.346;2022-08-01T10:44:36;4.75;;;1.90;;
66020;SDS011;52789;59.980;30.346;2022-08-01T10:49:34;3.97;;;2.30;;
66020;SDS011;52789;59.980;30.346;2022-08-01T10:52:05;3.83;;;1.77;;
66020;SDS011;52789;59.980;30.346;2022-08-01T10:54:37;4.63;;;2.03;;
66020;SDS011;52789;59.980;30.346;2022-08-01T10:57:04;4.13;;;2.15;;
66020;SDS011;52789;59.980;30.346;2022-08-01T10:59:32;5.07;;;2.25;;
66020;SDS011;52789;59.980;30.346;2022-08-01T11:01:59;7.18;;;2.03;;
66020;SDS011;52789;59.980;30.346;2022-08-01T11:05:01;4.65;;;2.22;;
66020;SDS011;52789;59.980;30.346;2022-08-01T11:07:38;5.25;;;1.67;;
66020;SDS011;52789;59.980;30.346;2022-08-01T11:10:16;7.32;;;1.88;;
66020;SDS011;52789;59.980;30.346;2022-08-01T11:13:00;2.20;;;1.35;;
66020;SDS011;52789;59.980;30.346;2022-08-01T11:15:28;2.83;;;1.45;;
66020;SDS011;52789;59.980;30.346;2022-08-01T11:17:54;7.47;;;2.38;;
66020;SDS011;52789;59.980;30.346;2022-08-01T11:20:31;2.67;;;1.70;;
66020;SDS011;52789;59.980;30.346;2022-08-01T11:25:26;11.00;;;4.30;;
66020;SDS011;52789;59.980;30.346;2022-08-01T11:33:11;4.03;;;1.90;;
66020;SDS011;52789;59.980;30.346;2022-08-01T11:36:16;5.17;;;1.37;;
66020;SDS011;52789;59.980;30.346;2022-08-01T11:41:12;3.78;;;1.42;;
66020;SDS011;52789;59.980;30.346;2022-08-01T11:57:09;4.80;;;2.10;;
66020;SDS011;52789;59.980;30.346;2022-08-01T11:59:37;6.10;;;2.28;;
66020;SDS011;52789;59.980;30.346;2022-08-01T12:02:20;2.70;;;1.80;;
66020;SDS011;52789;59.980;30.346;2022-08-01T12:04:49;4.65;;;2.15;;
66020;SDS011;52789;59.980;30.346;2022-08-01T12:07:18;4.75;;;2.83;;
66020;SDS011;52789;59.980;30.346;2022-08-01T12:09:45;2.78;;;1.50;;
66020;SDS011;52789;59.980;30.346;2022-08-01T12:12:14;3.45;;;1.70;;
66020;SDS011;52789;59.980;30.346;2022-08-01T12:14:42;6.20;;;1.77;;
66020;SDS011;52789;59.980;30.346;2022-08-01T12:17:08;4.00;;;1.80;;
66020;SDS011;52789;59.980;30.346;2022-08-01T12:19:34;3.38;;;1.75;;
66020;SDS011;52789;59.980;30.346;2022-08-01T12:22:12;3.67;;;2.03;;
66020;SDS011;52789;59.980;30.346;2022-08-01T12:24:40;3.78;;;2.40;;
66020;SDS011;52789;59.980;30.346;2022-08-01T12:27:07;3.85;;;2.20;;
66020;SDS011;52789;59.980;30.346;2022-08-01T12:29:35;2.88;;;1.85;;
66020;SDS011;52789;59.980;30.346;2022-08-01T12:35:12;3.08;;;1.50;;
66020;SDS011;52789;59.980;30.346;2022-08-01T12:37:46;3.22;;;2.00;;
66020;SDS011;52789;59.980;30.346;2022-08-01T12:42:43;4.88;;;2.70;;
66020;SDS011;52789;59.980;30.346;2022-08-01T12:45:15;6.75;;;2.58;;
66020;SDS011;52789;59.980;30.346;2022-08-01T12:47:44;3.83;;;3.10;;
66020;SDS011;52789;59.980;30.346;2022-08-01T12:54:03;4.15;;;2.88;;
66020;SDS011;52789;59.980;30.346;2022-08-01T12:56:33;7.25;;;3.30;;
66020;SDS011;52789;59.980;30.346;2022-08-01T12:59:18;4.70;;;3.35;;
66020;SDS011;52789;59.980;30.346;2022-08-01T13:01:48;6.50;;;3.75;;
66020;SDS011;52789;59.980;30.346;2022-08-01T13:04:17;4.18;;;3.78;;
66020;SDS011;52789;59.980;30.346;2022-08-01T13:06:42;6.35;;;4.00;;
66020;SDS011;52789;59.980;30.346;2022-08-01T13:09:17;6.68;;;4.03;;
66020;SDS011;52789;59.980;30.346;2022-08-01T13:11:43;8.52;;;4.90;;
66020;SDS011;52789;59.980;30.346;2022-08-01T13:14:11;9.95;;;5.40;;
66020;SDS011;52789;59.980;30.346;2022-08-01T13:16:52;9.52;;;5.78;;
66020;SDS011;52789;59.980;30.346;2022-08-01T13:19:18;6.38;;;3.78;;
66020;SDS011;52789;59.980;30.346;2022-08-01T13:21:53;5.05;;;3.30;;
66020;SDS011;52789;59.980;30.346;2022-08-01T13:24:27;4.55;;;3.00;;
66020;SDS011;52789;59.980;30.346;2022-08-01T13:26:58;4.85;;;2.97;;
66020;SDS011;52789;59.980;30.346;2022-08-01T13:29:33;4.13;;;2.00;;
66020;SDS011;52789;59.980;30.346;2022-08-01T13:32:12;2.67;;;2.03;;
66020;SDS011;52789;59.980;30.346;2022-08-01T13:34:39;4.93;;;2.03;;
66020;SDS011;52789;59.980;30.346;2022-08-01T13:37:31;5.60;;;2.88;;
66020;SDS011;52789;59.980;30.346;2022-08-01T13:39:57;3.88;;;2.53;;
66020;SDS011;52789;59.980;30.346;2022-08-01T13:42:22;6.50;;;2.33;;
66020;SDS011;52789;59.980;30.346;2022-08-01T13:44:48;4.95;;;2.95;;
66020;SDS011;52789;59.980;30.346;2022-08-01T13:47:16;5.28;;;2.60;;
66020;SDS011;52789;59.980;30.346;2022-08-01T13:49:41;4.32;;;3.03;;
66020;SDS011;52789;59.980;30.346;2022-08-01T13:52:07;6.68;;;3.30;;
66020;SDS011;52789;59.980;30.346;2022-08-01T13:54:33;6.45;;;3.28;;
66020;SDS011;52789;59.980;30.346;2022-08-01T13:56:59;11.15;;;3.45;;
66020;SDS011;52789;59.980;30.346;2022-08-01T13:59:27;10.43;;;2.75;;
66020;SDS011;52789;59.980;30.346;2022-08-01T14:01:54;13.32;;;3.55;;
66020;SDS011;52789;59.980;30.346;2022-08-01T14:04:19;11.13;;;3.42;;
66020;SDS011;52789;59.980;30.346;2022-08-01T14:06:46;9.05;;;3.42;;
66020;SDS011;52789;59.980;30.346;2022-08-01T14:09:12;8.30;;;3.30;;
66020;SDS011;52789;59.980;30.346;2022-08-01T14:11:38;3.50;;;1.98;;
66020;SDS011;52789;59.980;30.346;2022-08-01T14:14:03;5.68;;;2.90;;
66020;SDS011;52789;59.980;30.346;2022-08-01T14:16:31;3.97;;;2.70;;
66020;SDS011;52789;59.980;30.346;2022-08-01T14:18:57;4.07;;;2.63;;
66020;SDS011;52789;59.980;30.346;2022-08-01T14:21:23;4.10;;;2.55;;
66020;SDS011;52789;59.980;30.346;2022-08-01T14:23:48;7.22;;;2.65;;
66020;SDS011;52789;59.980;30.346;2022-08-01T14:26:14;3.90;;;2.00;;
66020;SDS011;52789;59.980;30.346;2022-08-01T14:28:39;6.30;;;2.40;;
66020;SDS011;52789;59.980;30.346;2022-08-01T14:31:05;2.58;;;1.95;;
66020;SDS011;52789;59.980;30.346;2022-08-01T14:33:31;2.40;;;2.20;;
66020;SDS011;52789;59.980;30.346;2022-08-01T14:36:00;3.67;;;2.30;;
66020;SDS011;52789;59.980;30.346;2022-08-01T14:38:51;4.43;;;2.13;;
66020;SDS011;52789;59.980;30.346;2022-08-01T14:41:17;2.47;;;1.98;;
66020;SDS011;52789;59.980;30.346;2022-08-01T14:43:43;4.32;;;2.10;;
66020;SDS011;52789;59.980;30.346;2022-08-01T14:46:08;4.00;;;1.98;;
66020;SDS011;52789;59.980;30.346;2022-08-01T14:48:34;4.20;;;2.65;;
66020;SDS011;52789;59.980;30.346;2022-08-01T14:51:00;3.10;;;2.53;;
66020;SDS011;52789;59.980;30.346;2022-08-01T14:53:29;3.85;;;2.40;;
66020;SDS011;52789;59.980;30.346;2022-08-01T14:55:55;2.63;;;1.92;;
66020;SDS011;52789;59.980;30.346;2022-08-01T14:58:24;3.95;;;2.63;;
66020;SDS011;52789;59.980;30.346;2022-08-01T15:00:49;2.88;;;1.92;;
66020;SDS011;52789;59.980;30.346;2022-08-01T15:03:19;6.45;;;2.47;;
66020;SDS011;52789;59.980;30.346;2022-08-01T15:05:45;2.08;;;1.83;;
66020;SDS011;52789;59.980;30.346;2022-08-01T15:08:10;2.13;;;1.92;;
66020;SDS011;52789;59.980;30.346;2022-08-01T15:10:36;3.78;;;1.75;;
66020;SDS011;52789;59.980;30.346;2022-08-01T15:13:02;6.50;;;2.33;;
66020;SDS011;52789;59.980;30.346;2022-08-01T15:15:31;3.42;;;2.22;;
66020;SDS011;52789;59.980;30.346;2022-08-01T15:17:57;2.08;;;1.80;;
66020;SDS011;52789;59.980;30.346;2022-08-01T15:20:23;5.35;;;2.97;;
66020;SDS011;52789;59.980;30.346;2022-08-01T15:22:48;3.53;;;2.63;;
66020;SDS011;52789;59.980;30.346;2022-08-01T15:25:14;3.60;;;2.72;;
66020;SDS011;52789;59.980;30.346;2022-08-01T15:27:40;7.10;;;2.60;;
66020;SDS011;52789;59.980;30.346;2022-08-01T15:30:05;3.72;;;2.40;;
66020;SDS011;52789;59.980;30.346;2022-08-01T15:32:31;4.82;;;3.28;;